createdAt,value
2022-08-18T00:02:30.165Z,6.05
2022-08-18T00:05:00.337Z,5.43
2022-08-18T00:07:32.303Z,5.93
2022-08-18T00:10:01.268Z,6.07
2022-08-18T00:12:39.496Z,5.43
2022-08-18T00:15:09.550Z,5.70
2022-08-18T00:17:38.018Z,5.38
2022-08-18T00:20:09.196Z,6.28
2022-08-18T00:22:36.995Z,6.47
2022-08-18T00:25:04.769Z,6.53
2022-08-18T00:27:32.482Z,6.20
2022-08-18T00:30:02.508Z,5.18
2022-08-18T00:32:38.823Z,6.43
2022-08-18T00:35:28.774Z,5.93
2022-08-18T00:37:59.848Z,6.43
2022-08-18T00:40:40.665Z,6.10
2022-08-18T00:43:14.432Z,6.38
2022-08-18T00:45:43.795Z,5.75
2022-08-18T00:48:13.732Z,5.75
2022-08-18T00:50:54.230Z,6.45
2022-08-18T00:53:42.216Z,5.95
2022-08-18T00:56:25.543Z,6.50
2022-08-18T00:58:59.101Z,5.65
2022-08-18T01:01:30.854Z,6.07
2022-08-18T01:04:09.181Z,6.00
2022-08-18T01:07:04.692Z,6.45
2022-08-18T01:09:34.039Z,5.70
2022-08-18T01:12:01.731Z,7.00
2022-08-18T01:14:51.675Z,6.15
2022-08-18T01:17:37.848Z,6.38
2022-08-18T01:20:24.910Z,7.47
2022-08-18T01:22:58.172Z,8.90
2022-08-18T01:25:44.385Z,7.75
2022-08-18T01:28:11.887Z,8.13
2022-08-18T01:30:58.477Z,8.07
2022-08-18T01:33:32.622Z,8.07
2022-08-18T01:36:04.656Z,6.82
2022-08-18T01:38:32.328Z,7.40
2022-08-18T01:41:26.492Z,9.25
2022-08-18T01:43:49.722Z,6.82
2022-08-18T01:46:21.477Z,7.75
2022-08-18T01:48:49.441Z,8.25
2022-08-18T01:51:19.808Z,7.90
2022-08-18T01:53:48.796Z,8.02
2022-08-18T01:56:17.882Z,9.38
2022-08-18T01:58:48.172Z,9.57
2022-08-18T02:01:16.550Z,8.55
2022-08-18T02:03:49.325Z,8.63
2022-08-18T02:06:32.385Z,9.30
2022-08-18T02:09:01.397Z,6.80
2022-08-18T02:11:29.004Z,7.47
2022-08-18T02:13:56.559Z,6.65
2022-08-18T02:16:24.540Z,6.53
2022-08-18T02:19:12.530Z,7.43
2022-08-18T02:21:40.207Z,6.70
2022-08-18T02:24:11.032Z,6.97
2022-08-18T02:26:38.716Z,7.53
2022-08-18T02:29:06.224Z,6.70
2022-08-18T02:31:33.880Z,7.45
2022-08-18T02:34:07.312Z,5.60
2022-08-18T02:36:37.267Z,6.63
2022-08-18T02:39:04.989Z,6.50
2022-08-18T02:41:33.209Z,6.68
2022-08-18T02:44:01.131Z,7.38
2022-08-18T02:46:31.119Z,8.15
2022-08-18T02:49:01.703Z,7.45
2022-08-18T02:51:29.410Z,8.20
2022-08-18T02:54:00.226Z,7.95
2022-08-18T02:56:41.937Z,7.82
2022-08-18T02:59:17.390Z,8.13
2022-08-18T03:01:47.828Z,9.05
2022-08-18T03:04:24.034Z,8.65
2022-08-18T03:06:56.409Z,10.20
2022-08-18T03:09:24.616Z,11.23
2022-08-18T03:11:53.641Z,11.55
2022-08-18T03:14:21.529Z,14.18
2022-08-18T03:16:54.072Z,14.63
2022-08-18T03:19:30.880Z,16.05
2022-08-18T03:22:03.378Z,15.63
2022-08-18T03:24:32.711Z,17.02
2022-08-18T03:27:08.020Z,18.10
2022-08-18T03:29:36.079Z,19.70
2022-08-18T03:32:06.775Z,19.98
2022-08-18T03:34:35.032Z,20.60
2022-08-18T03:37:02.872Z,20.10
2022-08-18T03:39:30.456Z,19.70
2022-08-18T03:42:01.611Z,20.25
2022-08-18T03:44:32.455Z,21.80
2022-08-18T03:47:03.263Z,22.20
2022-08-18T03:49:33.759Z,21.77
2022-08-18T03:52:03.985Z,23.13
2022-08-18T03:54:32.600Z,23.20
2022-08-18T03:57:00.988Z,22.85
2022-08-18T03:59:32.041Z,22.83
2022-08-18T04:02:02.623Z,24.67
2022-08-18T04:04:30.436Z,24.05
2022-08-18T04:07:01.192Z,24.45
2022-08-18T04:09:30.873Z,22.60
2022-08-18T04:12:02.896Z,22.83
2022-08-18T04:14:32.787Z,24.92
2022-08-18T04:17:00.544Z,25.15
2022-08-18T04:19:28.444Z,24.70
2022-08-18T04:21:57.826Z,23.83
2022-08-18T04:24:28.243Z,24.23
2022-08-18T04:27:01.709Z,27.77
2022-08-18T04:29:29.505Z,30.20
2022-08-18T04:31:57.243Z,33.30
2022-08-18T04:34:27.734Z,31.55
2022-08-18T04:36:55.403Z,32.42
2022-08-18T04:39:24.130Z,38.20
2022-08-18T04:41:54.453Z,41.28
2022-08-18T04:44:22.369Z,44.35
2022-08-18T04:46:52.305Z,44.58
2022-08-18T04:49:24.116Z,47.10
2022-08-18T04:52:36.099Z,50.97
2022-08-18T04:55:02.581Z,63.40
2022-08-18T04:57:35.042Z,82.72
2022-08-18T05:00:06.241Z,111.50
2022-08-18T05:02:34.010Z,126.45
2022-08-18T05:05:03.542Z,126.60
2022-08-18T05:07:31.547Z,122.22
2022-08-18T05:09:59.998Z,123.13
2022-08-18T05:12:31.361Z,122.53
2022-08-18T05:14:58.986Z,123.88
2022-08-18T05:17:30.450Z,133.90
2022-08-18T05:20:01.046Z,134.85
2022-08-18T05:22:39.228Z,126.30
2022-08-18T05:25:09.420Z,131.85
2022-08-18T05:27:40.660Z,130.45
2022-08-18T05:30:09.264Z,129.38
2022-08-18T05:32:48.478Z,117.47
2022-08-18T05:35:32.817Z,118.25
2022-08-18T05:38:29.732Z,120.00
2022-08-18T05:41:14.136Z,119.03
2022-08-18T05:43:52.004Z,108.68
2022-08-18T05:46:26.443Z,104.95
2022-08-18T05:48:54.102Z,103.90
2022-08-18T05:51:29.528Z,104.63
2022-08-18T05:54:15.995Z,106.35
2022-08-18T05:56:48.127Z,102.13
2022-08-18T05:59:26.523Z,100.55
2022-08-18T06:02:16.407Z,94.28
2022-08-18T06:04:48.098Z,92.25
2022-08-18T06:07:27.759Z,91.97
2022-08-18T06:10:06.938Z,86.50
2022-08-18T06:12:47.144Z,75.40
2022-08-18T06:15:34.675Z,70.68
2022-08-18T06:18:28.503Z,69.18
2022-08-18T06:21:08.083Z,67.95
2022-08-18T06:23:52.226Z,71.35
2022-08-18T06:26:26.209Z,71.18
2022-08-18T06:29:15.301Z,68.55
2022-08-18T06:31:57.744Z,70.00
2022-08-18T06:34:30.451Z,69.95
2022-08-18T06:37:33.429Z,66.88
2022-08-18T06:40:02.344Z,64.00
2022-08-18T06:42:32.746Z,57.28
2022-08-18T06:45:12.820Z,49.03
2022-08-18T06:48:20.535Z,45.65
2022-08-18T06:50:53.450Z,52.58
2022-08-18T06:53:27.607Z,39.30
2022-08-18T06:55:56.543Z,33.20
2022-08-18T06:58:31.150Z,27.00
2022-08-18T07:01:07.899Z,22.60
2022-08-18T07:03:44.107Z,18.52
2022-08-18T07:06:23.560Z,17.67
2022-08-18T07:08:54.055Z,16.90
2022-08-18T07:11:24.556Z,16.08
2022-08-18T07:14:15.168Z,14.77
2022-08-18T07:17:00.317Z,15.70
2022-08-18T07:19:32.447Z,14.65
2022-08-18T07:22:05.442Z,15.55
2022-08-18T07:24:39.496Z,15.85
2022-08-18T07:27:10.910Z,16.13
2022-08-18T07:29:59.393Z,17.05
2022-08-18T07:32:35.546Z,16.15
2022-08-18T07:35:07.265Z,14.68
2022-08-18T07:37:53.398Z,12.95
2022-08-18T07:40:42.139Z,12.30
2022-08-18T07:43:27.357Z,12.20
2022-08-18T07:46:10.322Z,9.73
2022-08-18T07:48:41.122Z,8.68
2022-08-18T07:51:18.848Z,7.80
2022-08-18T07:54:49.879Z,7.65
2022-08-18T07:57:20.451Z,7.47
2022-08-18T08:00:10.485Z,6.93
2022-08-18T08:02:56.402Z,6.93
2022-08-18T08:06:02.606Z,6.55
2022-08-18T08:08:39.953Z,6.53
2022-08-18T08:11:39.377Z,5.90
2022-08-18T08:14:26.718Z,5.22
2022-08-18T08:17:05.192Z,4.93
2022-08-18T08:20:09.687Z,5.03
2022-08-18T08:23:05.319Z,6.03
2022-08-18T08:25:54.344Z,4.78
2022-08-18T08:28:55.905Z,7.30
2022-08-18T08:31:55.210Z,5.78
2022-08-18T08:34:31.564Z,4.45
2022-08-18T08:37:03.942Z,4.45
2022-08-18T08:39:43.053Z,3.50
2022-08-18T08:42:31.652Z,3.50
2022-08-18T08:45:13.681Z,3.42
2022-08-18T08:47:53.664Z,2.90
2022-08-18T08:50:26.765Z,2.55
2022-08-18T08:53:01.107Z,2.53
2022-08-18T08:55:32.634Z,2.40
2022-08-18T08:58:17.280Z,2.67
2022-08-18T09:00:46.292Z,2.88
2022-08-18T09:03:30.539Z,2.47
2022-08-18T09:06:49.760Z,3.33
2022-08-18T09:09:26.471Z,2.78
2022-08-18T09:12:02.291Z,2.67
2022-08-18T09:14:41.655Z,2.20
2022-08-18T09:17:12.025Z,2.47
2022-08-18T09:20:28.316Z,2.85
2022-08-18T09:23:33.018Z,2.75
2022-08-18T09:26:25.575Z,2.38
2022-08-18T09:28:56.621Z,2.42
2022-08-18T09:31:25.916Z,2.13
2022-08-18T09:34:09.750Z,2.45
2022-08-18T09:37:25.805Z,2.92
2022-08-18T09:41:02.551Z,3.13
2022-08-18T09:43:55.079Z,2.05
2022-08-18T09:46:41.545Z,2.50
2022-08-18T09:49:23.335Z,2.60
2022-08-18T09:51:57.569Z,2.65
2022-08-18T09:54:33.610Z,2.33
2022-08-18T09:57:05.257Z,3.00
2022-08-18T09:59:34.435Z,2.33
2022-08-18T10:02:06.447Z,2.30
2022-08-18T10:04:51.261Z,2.50
2022-08-18T10:07:43.460Z,2.50
2022-08-18T10:10:59.419Z,2.92
2022-08-18T10:13:26.286Z,2.78
2022-08-18T10:16:25.928Z,2.58
2022-08-18T10:19:03.890Z,2.35
2022-08-18T10:22:02.041Z,2.78
2022-08-18T10:27:44.688Z,2.63
2022-08-18T10:30:36.540Z,2.25
2022-08-18T10:33:54.624Z,2.42
2022-08-18T10:36:46.239Z,2.10
2022-08-18T10:39:18.767Z,2.08
2022-08-18T10:42:02.255Z,2.55
2022-08-18T10:44:34.762Z,2.63
2022-08-18T10:47:03.601Z,2.33
2022-08-18T10:49:46.683Z,2.50
2022-08-18T10:52:14.728Z,2.53
2022-08-18T10:55:11.360Z,2.50
2022-08-18T10:57:51.110Z,2.30
2022-08-18T11:00:21.736Z,2.40
2022-08-18T11:03:30.018Z,2.15
2022-08-18T11:05:47.234Z,2.15
2022-08-18T11:08:20.308Z,2.00
2022-08-18T11:11:27.295Z,2.33
2022-08-18T11:13:41.072Z,2.20
2022-08-18T11:16:42.385Z,1.60
2022-08-18T11:19:13.256Z,1.92
2022-08-18T11:21:51.417Z,1.83
2022-08-18T11:24:26.649Z,1.75
2022-08-18T11:26:58.613Z,2.10
2022-08-18T11:29:40.295Z,1.70
2022-08-18T11:32:22.374Z,2.20
2022-08-18T11:34:59.649Z,2.15
2022-08-18T11:37:48.483Z,2.33
2022-08-18T11:43:21.655Z,2.40
2022-08-18T11:46:04.497Z,1.98
2022-08-18T11:48:52.225Z,2.00
2022-08-18T11:51:32.408Z,1.60
2022-08-18T11:54:05.173Z,2.58
2022-08-18T11:56:37.607Z,2.42
2022-08-18T11:59:06.929Z,3.05
2022-08-18T12:01:54.706Z,2.15
2022-08-18T12:04:53.351Z,2.15
2022-08-18T12:07:34.336Z,2.38
2022-08-18T12:10:29.362Z,1.80
2022-08-18T12:15:43.532Z,2.22
2022-08-18T12:18:26.031Z,1.98
2022-08-18T12:20:59.309Z,1.95
2022-08-18T12:23:28.096Z,1.55
2022-08-18T12:26:27.390Z,1.77
2022-08-18T12:29:01.595Z,1.58
2022-08-18T12:34:24.942Z,2.35
2022-08-18T12:37:01.207Z,1.73
2022-08-18T12:40:06.352Z,1.90
2022-08-18T12:42:34.977Z,1.75
2022-08-18T12:45:03.356Z,2.00
2022-08-18T12:47:53.444Z,1.73
2022-08-18T12:50:31.202Z,1.92
2022-08-18T12:53:02.113Z,1.92
2022-08-18T12:55:35.342Z,2.00
2022-08-18T12:58:27.664Z,1.55
2022-08-18T13:00:55.678Z,1.90
2022-08-18T13:03:24.550Z,2.17
2022-08-18T13:05:55.027Z,1.90
2022-08-18T13:08:38.135Z,2.13
2022-08-18T13:11:21.657Z,2.20
2022-08-18T13:13:55.105Z,1.90
2022-08-18T13:16:53.353Z,1.85
2022-08-18T13:19:22.280Z,2.40
2022-08-18T13:21:49.793Z,1.75
2022-08-18T13:24:21.923Z,2.00
2022-08-18T13:26:51.696Z,2.30
2022-08-18T13:29:19.918Z,2.13
2022-08-18T13:31:57.819Z,2.20
2022-08-18T13:34:30.129Z,2.25
2022-08-18T13:36:58.307Z,2.22
2022-08-18T13:39:33.878Z,3.15
2022-08-18T13:42:22.453Z,2.40
2022-08-18T13:44:53.463Z,2.17
2022-08-18T13:47:22.643Z,2.38
2022-08-18T13:49:58.222Z,2.28
2022-08-18T13:52:35.653Z,2.22
2022-08-18T13:55:08.030Z,2.33
2022-08-18T13:57:39.078Z,2.42
2022-08-18T14:00:18.267Z,2.10
2022-08-18T14:02:53.800Z,2.42
2022-08-18T14:05:22.275Z,2.60
2022-08-18T14:08:19.052Z,2.10
2022-08-18T14:10:54.313Z,2.45
2022-08-18T14:13:25.007Z,2.83
2022-08-18T14:15:55.882Z,2.40
2022-08-18T14:18:28.941Z,2.50
2022-08-18T14:21:23.058Z,2.78
2022-08-18T14:24:10.325Z,2.72
2022-08-18T14:26:51.259Z,3.13
2022-08-18T14:29:45.624Z,3.25
2022-08-18T14:32:07.573Z,3.03
2022-08-18T14:34:35.730Z,2.50
2022-08-18T14:37:04.098Z,2.75
2022-08-18T14:39:31.751Z,2.90
2022-08-18T14:41:59.767Z,3.05
2022-08-18T14:44:32.606Z,2.22
2022-08-18T14:47:00.321Z,3.00
2022-08-18T14:49:29.472Z,2.70
2022-08-18T14:51:59.602Z,3.13
2022-08-18T14:54:28.716Z,4.15
2022-08-18T14:56:59.955Z,2.67
2022-08-18T14:59:28.825Z,2.53
2022-08-18T15:01:58.524Z,3.10
2022-08-18T15:04:27.802Z,3.20
2022-08-18T15:06:56.790Z,3.00
2022-08-18T15:09:27.175Z,4.60
2022-08-18T15:11:58.482Z,2.85
2022-08-18T15:14:32.913Z,3.17
2022-08-18T15:17:12.030Z,2.70
2022-08-18T15:20:00.556Z,3.30
2022-08-18T15:22:50.099Z,2.75
2022-08-18T15:25:36.389Z,3.00
2022-08-18T15:28:04.735Z,3.42
2022-08-18T15:30:32.568Z,2.65
2022-08-18T15:33:03.224Z,3.13
2022-08-18T15:35:32.579Z,3.00
2022-08-18T15:38:00.905Z,2.70
2022-08-18T15:40:41.350Z,2.35
2022-08-18T15:43:11.128Z,2.38
2022-08-18T15:45:56.294Z,2.40
2022-08-18T15:50:54.516Z,2.72
2022-08-18T15:53:25.584Z,3.20
2022-08-18T15:56:04.196Z,3.28
2022-08-18T15:58:32.159Z,2.75
2022-08-18T16:00:59.734Z,3.15
2022-08-18T16:03:28.271Z,3.65
2022-08-18T16:05:56.596Z,2.83
2022-08-18T16:08:25.769Z,2.67
2022-08-18T16:10:54.768Z,3.00
2022-08-18T16:13:26.378Z,3.00
2022-08-18T16:15:53.941Z,2.60
2022-08-18T16:18:21.534Z,2.85
2022-08-18T16:20:50.671Z,3.03
2022-08-18T16:23:20.830Z,3.15
2022-08-18T16:25:50.136Z,3.55
2022-08-18T16:28:17.727Z,3.15
2022-08-18T16:30:46.858Z,2.90
2022-08-18T16:33:14.408Z,3.33
2022-08-18T16:35:42.415Z,3.10
2022-08-18T16:38:13.014Z,3.00
2022-08-18T16:40:41.359Z,3.13
2022-08-18T16:43:10.530Z,3.40
2022-08-18T16:45:38.705Z,3.30
2022-08-18T16:48:16.616Z,4.40
2022-08-18T16:50:45.439Z,3.42
2022-08-18T16:53:13.123Z,3.00
2022-08-18T16:55:43.361Z,3.83
2022-08-18T16:58:29.271Z,4.40
2022-08-18T17:01:18.977Z,3.78
2022-08-18T17:04:13.744Z,3.88
2022-08-18T17:06:48.179Z,3.03
2022-08-18T17:09:22.454Z,4.65
2022-08-18T17:11:52.358Z,3.35
2022-08-18T17:14:26.687Z,3.63
2022-08-18T17:16:56.245Z,4.03
2022-08-18T17:19:26.299Z,3.45
2022-08-18T17:21:59.262Z,3.40
2022-08-18T17:24:31.911Z,3.38
2022-08-18T17:27:27.199Z,3.47
2022-08-18T17:30:04.757Z,3.10
2022-08-18T17:32:48.153Z,3.67
2022-08-18T17:35:29.052Z,3.72
2022-08-18T17:38:15.683Z,3.45
2022-08-18T17:40:48.046Z,3.65
2022-08-18T17:43:18.378Z,3.72
2022-08-18T17:45:59.051Z,3.58
2022-08-18T17:48:42.390Z,3.85
2022-08-18T17:51:34.142Z,3.72
2022-08-18T17:54:17.448Z,3.70
2022-08-18T17:57:01.560Z,3.63
2022-08-18T17:59:45.671Z,3.00
2022-08-18T18:02:30.011Z,3.22
2022-08-18T18:05:03.119Z,3.58
2022-08-18T18:07:38.517Z,3.33
2022-08-18T18:10:12.490Z,3.25
2022-08-18T18:12:40.937Z,2.80
2022-08-18T18:15:12.164Z,3.42
2022-08-18T18:17:42.474Z,3.28
2022-08-18T18:20:32.926Z,3.45
2022-08-18T18:23:21.251Z,3.15
2022-08-18T18:25:50.391Z,3.50
2022-08-18T18:28:44.024Z,3.60
2022-08-18T18:31:29.334Z,3.60
2022-08-18T18:34:23.013Z,4.22
2022-08-18T18:36:52.148Z,3.75
2022-08-18T18:39:33.788Z,3.47
2022-08-18T18:42:24.011Z,3.70
2022-08-18T18:44:55.019Z,3.92
2022-08-18T18:47:44.033Z,2.78
2022-08-18T18:50:18.596Z,3.63
2022-08-18T18:52:57.153Z,3.30
2022-08-18T18:55:28.222Z,3.55
2022-08-18T18:58:27.478Z,3.95
2022-08-18T19:01:00.324Z,3.47
2022-08-18T19:03:33.867Z,3.58
2022-08-18T19:06:22.610Z,3.22
2022-08-18T19:09:11.229Z,3.42
2022-08-18T19:12:06.493Z,3.95
2022-08-18T19:14:39.502Z,4.05
2022-08-18T19:17:36.223Z,3.53
2022-08-18T19:20:21.007Z,3.70
2022-08-18T19:23:18.281Z,3.50
2022-08-18T19:26:02.544Z,3.40
2022-08-18T19:29:08.926Z,3.85
2022-08-18T19:31:40.114Z,3.30
2022-08-18T19:34:22.901Z,4.70
2022-08-18T19:37:09.974Z,3.70
2022-08-18T19:39:42.812Z,3.30
2022-08-18T19:42:24.822Z,3.78
2022-08-18T19:45:15.779Z,3.10
2022-08-18T19:47:49.653Z,4.60
2022-08-18T19:50:42.547Z,4.63
2022-08-18T19:53:52.297Z,4.90
2022-08-18T19:56:32.918Z,4.47
2022-08-18T19:59:18.555Z,4.53
2022-08-18T20:01:52.222Z,4.60
2022-08-18T20:04:43.619Z,4.53
2022-08-18T20:07:16.867Z,4.18
2022-08-18T20:10:01.865Z,4.53
2022-08-18T20:12:56.819Z,3.80
2022-08-18T20:15:27.112Z,3.35
2022-08-18T20:17:57.500Z,3.63
2022-08-18T20:20:40.196Z,3.75
2022-08-18T20:23:34.190Z,3.25
2022-08-18T20:26:01.891Z,3.78
2022-08-18T20:28:36.308Z,3.35
2022-08-18T20:31:13.838Z,3.42
2022-08-18T20:33:46.952Z,4.45
2022-08-18T20:36:29.187Z,3.70
2022-08-18T20:39:02.191Z,3.85
2022-08-18T20:41:30.153Z,3.92
2022-08-18T20:44:09.693Z,4.53
2022-08-18T20:47:14.633Z,3.85
2022-08-18T20:50:23.579Z,3.42
2022-08-18T20:53:12.719Z,3.80
2022-08-18T20:56:32.268Z,4.22
2022-08-18T21:01:38.707Z,3.65
2022-08-18T21:04:08.823Z,3.85
2022-08-18T21:06:42.189Z,4.07
2022-08-18T21:09:10.719Z,3.40
2022-08-18T21:11:45.523Z,3.30
2022-08-18T21:14:23.077Z,3.05
2022-08-18T21:16:50.602Z,4.40
2022-08-18T21:19:27.954Z,3.50
2022-08-18T21:22:04.463Z,3.83
2022-08-18T21:24:34.634Z,3.72
2022-08-18T21:27:27.508Z,3.80
2022-08-18T21:29:59.048Z,3.38
2022-08-18T21:32:49.398Z,3.50
2022-08-18T21:35:23.387Z,3.15
2022-08-18T21:38:14.692Z,3.55
2022-08-18T21:40:46.949Z,3.28
2022-08-18T21:43:36.135Z,3.25
2022-08-18T21:46:04.494Z,3.55
2022-08-18T21:48:34.469Z,3.13
2022-08-18T21:51:04.029Z,3.03
2022-08-18T21:53:33.925Z,3.42
2022-08-18T21:56:04.541Z,3.00
2022-08-18T21:58:42.376Z,3.88
2022-08-18T22:01:31.803Z,3.50
2022-08-18T22:04:01.999Z,3.00
2022-08-18T22:06:36.195Z,3.75
2022-08-18T22:09:30.286Z,3.03
2022-08-18T22:12:37.784Z,3.08
2022-08-18T22:15:16.039Z,3.50
2022-08-18T22:18:00.499Z,3.70
2022-08-18T22:20:47.417Z,3.63
2022-08-18T22:23:33.340Z,3.33
2022-08-18T22:26:17.550Z,3.17
2022-08-18T22:29:02.247Z,3.25
2022-08-18T22:31:56.007Z,3.90
2022-08-18T22:34:29.113Z,3.20
2022-08-18T22:37:06.686Z,3.50
2022-08-18T22:39:37.888Z,3.40
2022-08-18T22:42:09.728Z,3.33
2022-08-18T22:44:38.063Z,3.28
2022-08-18T22:47:13.168Z,3.78
2022-08-18T22:49:40.853Z,3.47
2022-08-18T22:52:19.060Z,3.40
2022-08-18T22:54:46.770Z,3.03
2022-08-18T22:57:23.603Z,3.25
2022-08-18T22:59:51.578Z,3.25
2022-08-18T23:02:22.074Z,3.53
2022-08-18T23:04:50.206Z,3.15
2022-08-18T23:07:24.852Z,3.15
2022-08-18T23:09:54.848Z,3.17
2022-08-18T23:12:22.447Z,2.80
2022-08-18T23:14:50.060Z,3.40
2022-08-18T23:17:17.921Z,2.97
2022-08-18T23:19:47.078Z,3.13
2022-08-18T23:22:15.015Z,3.30
2022-08-18T23:24:42.956Z,3.10
2022-08-18T23:27:10.662Z,2.70
2022-08-18T23:29:41.278Z,2.85
2022-08-18T23:32:09.023Z,2.75
2022-08-18T23:34:36.967Z,2.60
2022-08-18T23:37:05.186Z,2.78
2022-08-18T23:39:34.954Z,3.53
2022-08-18T23:42:06.781Z,2.90
2022-08-18T23:44:34.533Z,2.85
2022-08-18T23:47:02.437Z,3.13
2022-08-18T23:49:30.535Z,2.80
2022-08-18T23:51:59.729Z,3.20
2022-08-18T23:54:33.366Z,3.33
2022-08-18T23:57:01.507Z,3.03
2022-08-18T23:59:29.753Z,2.88
